Time;durP1;ratioP1;P1;durP2;ratioP2;P2;SDS_P1;SDS_P2;PMS_P1;PMS_P2;Temp;Humidity;BMP_temperature;BMP_pressure;BME280_temperature;BME280_humidity;BME280_pressure;Samples;Min_cycle;Max_cycle;Signal;HPM_P1;HPM_P2
2022/08/29 00:01:47;;;;;;;9.48;2.63;;;;;;;;;;5065533;28;20101;-66
2022/08/29 00:04:14;;;;;;;7.10;2.75;;;;;;;;;;5059651;28;20644;-66
2022/08/29 00:06:41;;;;;;;12.55;2.75;;;;;;;;;;5059488;28;20837;-67
2022/08/29 00:09:09;;;;;;;7.72;2.50;;;;;;;;;;5055330;28;20060;-66
2022/08/29 00:11:36;;;;;;;7.15;2.63;;;;;;;;;;5067648;28;20097;-66
2022/08/29 00:14:04;;;;;;;8.85;2.38;;;;;;;;;;5065760;28;20446;-66
2022/08/29 00:16:31;;;;;;;5.10;2.30;;;;;;;;;;5067151;28;20048;-66
2022/08/29 00:19:00;;;;;;;8.77;2.78;;;;;;;;;;5068795;28;20137;-66
2022/08/29 00:21:27;;;;;;;10.73;2.78;;;;;;;;;;5070555;28;20595;-66
2022/08/29 00:23:54;;;;;;;5.97;2.50;;;;;;;;;;5066106;28;20048;-66
2022/08/29 00:26:21;;;;;;;8.18;2.72;;;;;;;;;;5074677;28;20404;-66
2022/08/29 00:28:48;;;;;;;8.32;2.53;;;;;;;;;;5049596;28;20056;-66
2022/08/29 00:31:16;;;;;;;8.52;2.63;;;;;;;;;;5063998;28;20045;-66
2022/08/29 00:33:43;;;;;;;7.05;2.28;;;;;;;;;;5061729;28;20438;-66
2022/08/29 00:36:11;;;;;;;7.95;2.60;;;;;;;;;;5058606;28;20093;-66
2022/08/29 00:38:39;;;;;;;7.50;2.30;;;;;;;;;;5059245;28;20071;-66
2022/08/29 00:41:06;;;;;;;8.93;2.40;;;;;;;;;;5048069;28;20079;-66
2022/08/29 00:43:36;;;;;;;8.55;2.50;;;;;;;;;;5062942;28;20052;-65
2022/08/29 00:46:12;;;;;;;8.85;2.50;;;;;;;;;;5064931;28;20060;-65
2022/08/29 00:48:40;;;;;;;9.48;2.65;;;;;;;;;;5065025;28;20045;-66
2022/08/29 00:51:09;;;;;;;11.48;3.03;;;;;;;;;;5068544;28;20049;-65
2022/08/29 00:53:39;;;;;;;9.60;2.60;;;;;;;;;;5063426;28;20097;-66
2022/08/29 00:56:07;;;;;;;10.27;2.28;;;;;;;;;;5068414;28;20052;-66
2022/08/29 00:58:36;;;;;;;9.50;2.38;;;;;;;;;;5066423;28;20052;-66
2022/08/29 01:01:03;;;;;;;5.25;2.13;;;;;;;;;;5068601;28;20044;-66
2022/08/29 01:03:32;;;;;;;10.93;2.50;;;;;;;;;;5065928;28;20775;-66
2022/08/29 01:06:00;;;;;;;13.95;2.95;;;;;;;;;;5063720;28;20049;-66
2022/08/29 01:08:27;;;;;;;12.80;3.05;;;;;;;;;;5061260;28;20055;-65
2022/08/29 01:13:42;;;;;;;6.00;2.20;;;;;;;;;;5066382;28;20511;-66
2022/08/29 01:16:10;;;;;;;10.15;2.35;;;;;;;;;;5048131;28;20099;-67
2022/08/29 01:18:38;;;;;;;5.43;2.28;;;;;;;;;;5057936;28;20553;-66
2022/08/29 01:21:12;;;;;;;8.73;2.53;;;;;;;;;;5065126;28;20055;-66
2022/08/29 01:23:42;;;;;;;7.95;2.33;;;;;;;;;;5062069;28;20084;-66
2022/08/29 01:26:12;;;;;;;8.27;2.15;;;;;;;;;;5066235;28;20047;-66
2022/08/29 01:28:41;;;;;;;9.38;2.38;;;;;;;;;;5061793;28;20061;-66
2022/08/29 01:31:10;;;;;;;8.45;2.10;;;;;;;;;;5050444;28;20113;-66
2022/08/29 01:33:39;;;;;;;6.72;2.45;;;;;;;;;;5068465;28;20051;-66
2022/08/29 01:36:06;;;;;;;11.50;3.05;;;;;;;;;;5068656;28;20482;-66
2022/08/29 01:38:34;;;;;;;11.07;2.65;;;;;;;;;;5061882;28;20742;-66
2022/08/29 01:41:01;;;;;;;5.88;2.33;;;;;;;;;;5065502;28;20133;-66
2022/08/29 01:43:30;;;;;;;8.05;2.33;;;;;;;;;;5066156;28;20067;-66
2022/08/29 01:45:58;;;;;;;13.98;3.33;;;;;;;;;;5064245;28;20041;-65
2022/08/29 01:48:25;;;;;;;17.48;3.80;;;;;;;;;;5059211;28;20467;-66
2022/08/29 01:50:52;;;;;;;11.45;2.80;;;;;;;;;;5068043;28;20491;-66
2022/08/29 01:53:19;;;;;;;8.10;2.85;;;;;;;;;;5066792;28;20045;-67
2022/08/29 01:55:47;;;;;;;10.20;2.30;;;;;;;;;;5064309;28;20052;-67
2022/08/29 01:58:15;;;;;;;15.00;2.63;;;;;;;;;;5069892;28;20102;-66
2022/08/29 02:00:43;;;;;;;9.02;1.90;;;;;;;;;;5071935;28;20055;-67
2022/08/29 02:03:10;;;;;;;9.80;2.17;;;;;;;;;;5068425;28;20057;-65
2022/08/29 02:05:38;;;;;;;12.35;2.63;;;;;;;;;;5064575;28;20049;-66
2022/08/29 02:08:05;;;;;;;7.35;2.22;;;;;;;;;;5066551;28;20070;-66
2022/08/29 02:10:32;;;;;;;13.90;2.25;;;;;;;;;;5053856;28;20052;-66
2022/08/29 02:13:00;;;;;;;7.18;2.45;;;;;;;;;;5062863;28;20399;-66
2022/08/29 02:15:27;;;;;;;11.27;3.40;;;;;;;;;;5069937;28;20405;-66
2022/08/29 02:17:55;;;;;;;10.80;2.88;;;;;;;;;;5048201;28;20064;-66
2022/08/29 02:20:23;;;;;;;10.48;2.78;;;;;;;;;;5072937;28;20044;-66
2022/08/29 02:22:50;;;;;;;6.78;2.10;;;;;;;;;;5049012;28;20569;-66
2022/08/29 02:28:02;;;;;;;10.93;2.47;;;;;;;;;;5063765;28;20573;-66
2022/08/29 02:30:30;;;;;;;15.85;3.35;;;;;;;;;;5068484;28;20078;-66
2022/08/29 02:32:58;;;;;;;17.48;3.00;;;;;;;;;;5049875;28;20052;-66
2022/08/29 02:35:25;;;;;;;12.07;3.58;;;;;;;;;;5068467;28;20045;-66
2022/08/29 02:37:53;;;;;;;10.75;3.17;;;;;;;;;;5067244;28;20052;-66
2022/08/29 02:40:20;;;;;;;16.45;3.17;;;;;;;;;;5064061;28;20045;-66
2022/08/29 02:42:47;;;;;;;11.38;2.80;;;;;;;;;;5040585;28;20065;-67
2022/08/29 02:45:15;;;;;;;8.93;3.17;;;;;;;;;;5022623;28;20544;-66
2022/08/29 02:47:42;;;;;;;13.05;3.40;;;;;;;;;;5020133;28;20060;-66
2022/08/29 02:50:11;;;;;;;14.77;3.22;;;;;;;;;;5023302;28;20072;-67
2022/08/29 02:52:39;;;;;;;6.20;2.53;;;;;;;;;;5020994;28;20523;-67
2022/08/29 02:55:06;;;;;;;10.05;2.60;;;;;;;;;;5020678;28;20050;-66
2022/08/29 02:57:34;;;;;;;7.07;2.28;;;;;;;;;;5022215;28;20746;-65
2022/08/29 03:00:01;;;;;;;13.95;3.33;;;;;;;;;;5020373;28;20501;-65
2022/08/29 03:02:28;;;;;;;8.18;2.45;;;;;;;;;;5017500;28;20088;-66
2022/08/29 03:04:58;;;;;;;9.25;3.17;;;;;;;;;;5020804;28;20107;-66
2022/08/29 03:07:28;;;;;;;5.80;2.30;;;;;;;;;;5022952;28;20084;-66
2022/08/29 03:09:55;;;;;;;4.85;2.33;;;;;;;;;;5020465;28;20097;-66
2022/08/29 03:12:22;;;;;;;8.98;2.40;;;;;;;;;;5019256;28;20050;-66
2022/08/29 03:14:49;;;;;;;6.82;1.98;;;;;;;;;;5018129;28;20119;-66
2022/08/29 03:17:16;;;;;;;9.25;2.17;;;;;;;;;;5021681;28;20468;-66
2022/08/29 03:19:44;;;;;;;7.65;2.30;;;;;;;;;;5020636;28;20053;-67
2022/08/29 03:22:11;;;;;;;6.68;2.00;;;;;;;;;;5021229;28;20073;-66
2022/08/29 03:24:39;;;;;;;8.48;2.30;;;;;;;;;;5023630;28;20546;-66
2022/08/29 03:27:07;;;;;;;7.82;1.80;;;;;;;;;;5024080;28;20801;-66
2022/08/29 03:29:34;;;;;;;4.90;1.50;;;;;;;;;;5021902;28;20057;-66
2022/08/29 03:32:01;;;;;;;4.63;1.48;;;;;;;;;;5022570;28;20123;-66
2022/08/29 03:34:28;;;;;;;7.35;2.05;;;;;;;;;;5024091;28;20057;-67
2022/08/29 03:36:56;;;;;;;7.85;1.73;;;;;;;;;;5018181;28;20107;-66
2022/08/29 03:39:23;;;;;;;7.80;1.70;;;;;;;;;;5016706;28;20054;-66
2022/08/29 03:41:52;;;;;;;9.38;1.95;;;;;;;;;;5019456;28;20053;-66
2022/08/29 03:44:19;;;;;;;5.68;1.70;;;;;;;;;;5061459;28;20059;-66
2022/08/29 03:46:47;;;;;;;9.93;1.65;;;;;;;;;;5065586;28;20055;-66
2022/08/29 03:49:14;;;;;;;7.22;1.90;;;;;;;;;;5061063;28;20054;-66
2022/08/29 03:51:42;;;;;;;10.20;1.58;;;;;;;;;;5063969;28;20131;-67
2022/08/29 03:54:09;;;;;;;5.95;1.70;;;;;;;;;;5070054;28;20113;-66
2022/08/29 03:56:36;;;;;;;8.10;2.03;;;;;;;;;;5062443;28;20048;-67
2022/08/29 03:59:05;;;;;;;4.88;1.50;;;;;;;;;;5068966;28;20110;-66
2022/08/29 04:01:32;;;;;;;5.63;1.60;;;;;;;;;;5061807;28;20056;-67
2022/08/29 04:03:59;;;;;;;10.65;2.00;;;;;;;;;;5063625;28;20525;-65
2022/08/29 04:06:28;;;;;;;3.58;1.25;;;;;;;;;;5046609;28;20457;-66
2022/08/29 04:08:55;;;;;;;7.20;1.60;;;;;;;;;;5069095;28;20128;-66
2022/08/29 04:11:23;;;;;;;4.47;1.30;;;;;;;;;;5067344;28;20059;-66
2022/08/29 04:13:51;;;;;;;7.90;1.63;;;;;;;;;;5066718;28;20132;-67
2022/08/29 04:16:22;;;;;;;4.18;1.20;;;;;;;;;;5066534;28;20080;-66
2022/08/29 04:18:49;;;;;;;4.03;1.20;;;;;;;;;;5062241;28;20780;-66
2022/08/29 04:21:17;;;;;;;5.53;1.73;;;;;;;;;;5061655;28;20052;-66
2022/08/29 04:23:45;;;;;;;9.65;1.48;;;;;;;;;;5066509;28;20048;-66
2022/08/29 04:26:14;;;;;;;4.50;1.40;;;;;;;;;;5063220;28;20076;-66
2022/08/29 04:28:41;;;;;;;6.85;1.58;;;;;;;;;;5073131;28;20059;-66
2022/08/29 04:31:12;;;;;;;6.82;1.38;;;;;;;;;;5066493;28;20041;-66
2022/08/29 04:33:40;;;;;;;8.45;1.73;;;;;;;;;;5068981;28;20052;-66
2022/08/29 04:36:08;;;;;;;5.55;1.60;;;;;;;;;;5067881;28;20443;-66
2022/08/29 04:38:35;;;;;;;5.90;1.73;;;;;;;;;;5067288;28;20410;-66
2022/08/29 04:41:05;;;;;;;6.50;1.40;;;;;;;;;;5059644;28;20056;-65
2022/08/29 04:43:33;;;;;;;8.38;1.55;;;;;;;;;;5045041;28;20095;-66
2022/08/29 04:46:00;;;;;;;7.65;1.73;;;;;;;;;;5061255;28;20053;-67
2022/08/29 04:48:27;;;;;;;7.72;1.85;;;;;;;;;;5068796;28;20044;-66
2022/08/29 04:50:56;;;;;;;8.82;1.83;;;;;;;;;;5048684;28;20092;-66
2022/08/29 04:53:24;;;;;;;5.25;1.85;;;;;;;;;;5064672;28;20652;-66
2022/08/29 04:55:56;;;;;;;5.55;1.60;;;;;;;;;;5065099;28;20097;-66
2022/08/29 04:58:24;;;;;;;6.03;1.70;;;;;;;;;;5068363;28;20051;-67
2022/08/29 05:00:51;;;;;;;9.02;2.17;;;;;;;;;;5067904;28;20797;-66
2022/08/29 05:03:19;;;;;;;9.10;1.77;;;;;;;;;;5052989;28;20502;-66
2022/08/29 05:05:46;;;;;;;6.45;2.00;;;;;;;;;;5069502;28;20058;-66
2022/08/29 05:08:14;;;;;;;6.95;2.00;;;;;;;;;;5064213;28;20053;-66
2022/08/29 05:10:43;;;;;;;9.88;1.92;;;;;;;;;;5046282;28;20061;-66
2022/08/29 05:13:11;;;;;;;13.77;1.58;;;;;;;;;;5064979;28;20127;-66
2022/08/29 05:15:38;;;;;;;9.98;1.92;;;;;;;;;;5065998;28;20486;-66
2022/08/29 05:18:06;;;;;;;12.55;2.20;;;;;;;;;;5066599;28;20531;-67
2022/08/29 05:20:33;;;;;;;9.80;2.20;;;;;;;;;;5069282;28;20048;-66
2022/08/29 05:23:00;;;;;;;13.23;2.47;;;;;;;;;;5065594;28;20543;-66
2022/08/29 05:25:28;;;;;;;9.13;2.65;;;;;;;;;;5067183;28;20102;-66
2022/08/29 05:27:56;;;;;;;10.18;2.03;;;;;;;;;;5068141;28;20145;-66
2022/08/29 05:30:23;;;;;;;9.63;1.92;;;;;;;;;;5045680;28;20056;-66
2022/08/29 05:32:51;;;;;;;9.93;1.88;;;;;;;;;;5066306;28;20071;-66
2022/08/29 05:35:18;;;;;;;7.43;1.73;;;;;;;;;;5055875;28;20473;-66
2022/08/29 05:37:46;;;;;;;11.73;1.90;;;;;;;;;;5066457;28;20082;-66
2022/08/29 05:40:13;;;;;;;8.98;1.90;;;;;;;;;;5050202;28;20056;-67
2022/08/29 05:42:41;;;;;;;7.00;1.70;;;;;;;;;;5050929;28;20495;-66
2022/08/29 05:45:09;;;;;;;9.85;1.63;;;;;;;;;;5065179;28;20063;-66
2022/08/29 05:47:37;;;;;;;14.50;1.95;;;;;;;;;;5067370;28;20048;-66
2022/08/29 05:50:06;;;;;;;4.78;1.70;;;;;;;;;;5052110;28;20048;-66
2022/08/29 05:52:33;;;;;;;10.55;1.88;;;;;;;;;;5066320;28;20453;-66
2022/08/29 05:55:01;;;;;;;13.38;2.42;;;;;;;;;;5065257;28;20078;-66
2022/08/29 05:57:29;;;;;;;9.40;2.38;;;;;;;;;;5065867;28;20049;-66
2022/08/29 05:59:57;;;;;;;10.32;2.55;;;;;;;;;;5061200;28;20118;-66
2022/08/29 06:02:24;;;;;;;9.15;1.50;;;;;;;;;;5056883;28;20059;-66
2022/08/29 06:04:52;;;;;;;10.05;1.90;;;;;;;;;;5058856;28;20339;-66
2022/08/29 06:07:20;;;;;;;11.10;1.88;;;;;;;;;;5061315;28;20055;-66
2022/08/29 06:09:51;;;;;;;8.52;1.83;;;;;;;;;;5061612;28;20052;-66
2022/08/29 06:12:19;;;;;;;10.82;2.00;;;;;;;;;;5062467;28;20052;-66
2022/08/29 06:14:46;;;;;;;7.05;1.98;;;;;;;;;;5065001;28;20454;-66
2022/08/29 06:17:15;;;;;;;8.98;1.88;;;;;;;;;;5061811;28;20403;-66
2022/08/29 06:19:42;;;;;;;12.65;2.05;;;;;;;;;;5061750;28;20064;-66
2022/08/29 06:22:10;;;;;;;10.07;2.13;;;;;;;;;;5051628;28;20766;-66
2022/08/29 06:24:37;;;;;;;8.93;2.28;;;;;;;;;;5062212;28;20090;-67
2022/08/29 06:27:05;;;;;;;9.25;2.00;;;;;;;;;;5064030;28;20110;-66
2022/08/29 06:29:32;;;;;;;7.43;1.80;;;;;;;;;;5068135;28;20045;-67
2022/08/29 06:31:59;;;;;;;9.88;1.90;;;;;;;;;;5064409;28;20070;-67
2022/08/29 06:34:28;;;;;;;7.20;1.85;;;;;;;;;;5068723;28;20045;-66
2022/08/29 06:36:55;;;;;;;6.90;1.55;;;;;;;;;;5064860;28;21114;-67
2022/08/29 06:39:23;;;;;;;5.57;1.65;;;;;;;;;;5043910;28;20056;-66
2022/08/29 06:41:50;;;;;;;8.82;1.90;;;;;;;;;;5053957;28;20052;-67
2022/08/29 06:44:17;;;;;;;9.35;2.15;;;;;;;;;;5058649;28;20056;-66
2022/08/29 06:46:47;;;;;;;8.57;1.50;;;;;;;;;;5060486;28;20057;-66
2022/08/29 06:49:15;;;;;;;8.73;1.88;;;;;;;;;;5060642;28;20040;-66
2022/08/29 06:51:47;;;;;;;6.57;1.67;;;;;;;;;;5062121;28;20131;-66
2022/08/29 06:54:15;;;;;;;11.13;1.83;;;;;;;;;;5061371;28;20081;-66
2022/08/29 06:56:43;;;;;;;20.02;1.50;;;;;;;;;;5040190;28;20569;-66
2022/08/29 06:59:10;;;;;;;9.00;1.75;;;;;;;;;;5065997;28;20286;-67
2022/08/29 07:01:37;;;;;;;9.05;1.67;;;;;;;;;;5060768;28;20398;-66
2022/08/29 07:04:05;;;;;;;5.43;1.50;;;;;;;;;;5064904;28;20463;-66
2022/08/29 07:06:32;;;;;;;13.55;2.30;;;;;;;;;;5060810;28;20052;-67
2022/08/29 07:09:01;;;;;;;6.75;1.45;;;;;;;;;;5065670;28;20407;-66
2022/08/29 07:11:29;;;;;;;6.80;1.77;;;;;;;;;;5057793;28;20052;-66
2022/08/29 07:13:58;;;;;;;6.40;1.70;;;;;;;;;;5045173;28;20059;-67
2022/08/29 07:16:25;;;;;;;9.80;2.20;;;;;;;;;;5061474;28;20048;-67
2022/08/29 07:18:52;;;;;;;7.25;1.85;;;;;;;;;;5057380;28;20060;-66
2022/08/29 07:21:21;;;;;;;5.30;1.25;;;;;;;;;;5066984;28;20044;-67
2022/08/29 07:23:48;;;;;;;7.45;1.80;;;;;;;;;;5062998;28;20048;-66
2022/08/29 07:26:18;;;;;;;5.60;1.88;;;;;;;;;;5058902;28;20053;-66
2022/08/29 07:28:46;;;;;;;12.25;2.20;;;;;;;;;;5055097;28;20162;-67
2022/08/29 07:31:13;;;;;;;14.32;2.35;;;;;;;;;;5058472;28;20059;-66
2022/08/29 07:33:41;;;;;;;12.95;2.10;;;;;;;;;;5062482;28;20052;-66
2022/08/29 07:36:08;;;;;;;9.70;2.17;;;;;;;;;;5060853;28;20048;-66
2022/08/29 07:38:35;;;;;;;8.85;1.83;;;;;;;;;;5060969;28;20651;-66
2022/08/29 07:41:05;;;;;;;10.35;1.88;;;;;;;;;;5059286;28;20059;-66
2022/08/29 07:43:34;;;;;;;6.05;1.85;;;;;;;;;;5063971;28;20052;-67
2022/08/29 07:46:06;;;;;;;6.25;1.80;;;;;;;;;;5066953;28;20511;-66
2022/08/29 07:48:33;;;;;;;12.53;2.10;;;;;;;;;;5063233;28;20051;-66
2022/08/29 07:51:01;;;;;;;9.63;1.95;;;;;;;;;;5059811;28;20056;-66
2022/08/29 07:53:28;;;;;;;11.82;1.92;;;;;;;;;;5062780;28;20052;-66
2022/08/29 07:55:55;;;;;;;9.05;1.75;;;;;;;;;;5039834;28;20060;-66
2022/08/29 07:58:22;;;;;;;7.70;1.80;;;;;;;;;;5063188;28;20041;-67
2022/08/29 08:00:51;;;;;;;10.07;2.03;;;;;;;;;;5055681;28;20068;-68
2022/08/29 08:03:20;;;;;;;9.98;2.25;;;;;;;;;;5055193;28;20523;-67
2022/08/29 08:05:47;;;;;;;7.80;1.73;;;;;;;;;;5060986;28;20048;-66
2022/08/29 08:08:14;;;;;;;10.05;2.15;;;;;;;;;;5060088;28;20094;-66
2022/08/29 08:10:42;;;;;;;12.82;2.13;;;;;;;;;;5057134;28;20103;-66
2022/08/29 08:13:09;;;;;;;7.53;2.15;;;;;;;;;;5056847;28;20106;-66
2022/08/29 08:15:38;;;;;;;8.77;2.13;;;;;;;;;;5058392;28;20131;-67
2022/08/29 08:18:07;;;;;;;9.02;1.98;;;;;;;;;;5061136;28;20087;-66
2022/08/29 08:20:34;;;;;;;7.68;2.30;;;;;;;;;;5063852;28;20658;-66
2022/08/29 08:23:02;;;;;;;10.10;2.45;;;;;;;;;;5058487;28;20052;-66
2022/08/29 08:25:29;;;;;;;9.80;2.10;;;;;;;;;;5045202;28;20427;-67
2022/08/29 08:27:57;;;;;;;13.20;2.42;;;;;;;;;;5059813;28;20592;-67
2022/08/29 08:30:25;;;;;;;11.95;2.10;;;;;;;;;;5058585;28;20052;-66
2022/08/29 08:32:53;;;;;;;11.30;1.92;;;;;;;;;;5047181;28;20053;-67
2022/08/29 08:35:21;;;;;;;13.55;2.30;;;;;;;;;;5059917;28;20049;-68
2022/08/29 08:37:48;;;;;;;6.00;2.25;;;;;;;;;;5044412;28;20081;-67
2022/08/29 08:40:19;;;;;;;11.02;2.20;;;;;;;;;;5068352;28;20044;-66
2022/08/29 08:42:48;;;;;;;7.05;1.75;;;;;;;;;;5047485;28;20761;-67
2022/08/29 08:45:17;;;;;;;10.18;2.17;;;;;;;;;;5069601;28;20052;-67
2022/08/29 08:47:47;;;;;;;10.85;2.28;;;;;;;;;;5052086;28;20071;-66
2022/08/29 08:50:17;;;;;;;11.32;2.05;;;;;;;;;;5051494;28;20076;-67
2022/08/29 08:52:47;;;;;;;11.15;1.95;;;;;;;;;;5066706;28;20098;-66
2022/08/29 08:55:27;;;;;;;10.73;3.00;;;;;;;;;;5070853;28;20053;-66
2022/08/29 08:58:01;;;;;;;13.27;2.40;;;;;;;;;;5068109;28;20770;-67
2022/08/29 09:00:30;;;;;;;11.60;2.33;;;;;;;;;;5064395;28;20051;-67
2022/08/29 09:03:02;;;;;;;8.60;2.47;;;;;;;;;;5069982;28;20144;-66
2022/08/29 09:05:35;;;;;;;9.23;2.00;;;;;;;;;;5065266;28;20427;-67
2022/08/29 09:08:06;;;;;;;9.25;2.22;;;;;;;;;;5054677;28;20045;-66
2022/08/29 09:10:42;;;;;;;13.00;2.20;;;;;;;;;;5069212;28;20044;-67
2022/08/29 09:13:18;;;;;;;7.82;1.80;;;;;;;;;;5065820;28;20048;-67
2022/08/29 09:15:47;;;;;;;7.80;1.50;;;;;;;;;;5065499;28;20052;-66
2022/08/29 09:18:15;;;;;;;10.52;2.25;;;;;;;;;;5069202;28;20045;-66
2022/08/29 09:20:43;;;;;;;11.77;2.72;;;;;;;;;;5070628;28;20056;-68
2022/08/29 09:23:18;;;;;;;8.93;2.10;;;;;;;;;;5065088;28;20054;-67
2022/08/29 09:25:45;;;;;;;13.00;2.90;;;;;;;;;;5069431;28;20048;-66
2022/08/29 09:28:13;;;;;;;10.15;2.33;;;;;;;;;;5052209;28;20074;-67
2022/08/29 09:30:42;;;;;;;8.02;2.22;;;;;;;;;;5069893;28;20051;-67
2022/08/29 09:33:10;;;;;;;9.73;2.47;;;;;;;;;;5067463;28;20402;-66
2022/08/29 09:35:40;;;;;;;10.68;2.75;;;;;;;;;;5067264;28;20049;-66
2022/08/29 09:56:04;;;;;;;12.98;2.47;;;;;;;;;;5023283;28;20055;-70
2022/08/29 09:58:35;;;;;;;10.50;2.55;;;;;;;;;;5059856;28;20142;-69
2022/08/29 10:01:04;;;;;;;10.00;3.05;;;;;;;;;;5068895;28;20087;-70
2022/08/29 10:03:33;;;;;;;8.73;2.20;;;;;;;;;;5069646;28;20044;-69
2022/08/29 10:06:06;;;;;;;10.93;3.08;;;;;;;;;;5046639;28;20485;-69
2022/08/29 10:08:35;;;;;;;11.45;3.15;;;;;;;;;;5071766;28;20123;-69
2022/08/29 10:11:05;;;;;;;12.73;2.80;;;;;;;;;;5073445;28;20063;-70
2022/08/29 10:13:35;;;;;;;12.10;2.88;;;;;;;;;;5070703;28;20053;-69
2022/08/29 10:16:08;;;;;;;12.80;2.90;;;;;;;;;;5064719;28;20048;-69
2022/08/29 10:18:41;;;;;;;14.45;3.03;;;;;;;;;;5061933;28;20096;-69
2022/08/29 10:21:15;;;;;;;11.35;2.92;;;;;;;;;;5068456;28;20048;-69
2022/08/29 10:23:49;;;;;;;14.85;3.20;;;;;;;;;;5067693;28;20053;-69
2022/08/29 10:26:22;;;;;;;13.85;3.33;;;;;;;;;;5079735;28;20052;-70
2022/08/29 10:28:50;;;;;;;;;;;;;;;;;;5071640;28;20070;-69
2022/08/29 10:31:20;;;;;;;18.10;3.72;;;;;;;;;;5078291;28;20009;-69
2022/08/29 10:33:56;;;;;;;13.48;3.00;;;;;;;;;;5068425;28;20053;-69
2022/08/29 10:36:26;;;;;;;12.63;2.80;;;;;;;;;;5068131;28;20056;-70
2022/08/29 10:38:57;;;;;;;17.38;3.67;;;;;;;;;;5074313;28;20135;-69
2022/08/29 10:41:32;;;;;;;14.77;3.15;;;;;;;;;;5071072;28;20052;-70
2022/08/29 10:44:08;;;;;;;16.55;4.30;;;;;;;;;;5069867;28;20049;-69
2022/08/29 10:46:42;;;;;;;13.40;3.80;;;;;;;;;;5052084;28;20109;-69
2022/08/29 10:49:15;;;;;;;18.20;3.38;;;;;;;;;;5073030;28;20067;-69
2022/08/29 10:51:48;;;;;;;14.15;3.10;;;;;;;;;;5065319;28;20456;-69
2022/08/29 10:54:20;;;;;;;16.15;3.33;;;;;;;;;;5069778;28;20048;-70
2022/08/29 10:56:49;;;;;;;13.88;3.05;;;;;;;;;;5065614;28;20189;-70
2022/08/29 10:59:22;;;;;;;13.20;3.35;;;;;;;;;;5046736;28;20048;-70
2022/08/29 11:01:51;;;;;;;12.43;3.10;;;;;;;;;;5044052;28;20049;-69
2022/08/29 11:04:21;;;;;;;18.98;3.75;;;;;;;;;;5063173;28;20055;-69
2022/08/29 11:06:51;;;;;;;16.85;3.40;;;;;;;;;;5055654;28;20053;-69
2022/08/29 11:09:21;;;;;;;17.42;3.90;;;;;;;;;;5063450;28;20040;-70
2022/08/29 11:12:00;;;;;;;12.43;2.92;;;;;;;;;;5061131;28;20076;-70
2022/08/29 11:14:31;;;;;;;13.32;3.28;;;;;;;;;;5059234;28;20119;-70
2022/08/29 11:16:59;;;;;;;17.15;3.33;;;;;;;;;;5071567;28;20097;-70
2022/08/29 11:19:29;;;;;;;11.38;2.97;;;;;;;;;;5068111;28;20056;-70
2022/08/29 11:21:59;;;;;;;11.68;3.10;;;;;;;;;;5063318;28;20048;-69
2022/08/29 11:24:29;;;;;;;9.32;3.05;;;;;;;;;;5063144;28;20052;-70
2022/08/29 11:27:02;;;;;;;11.10;2.70;;;;;;;;;;5059553;28;20706;-70
2022/08/29 11:29:33;;;;;;;15.88;2.72;;;;;;;;;;5047158;28;20063;-69
2022/08/29 11:32:04;;;;;;;16.40;3.15;;;;;;;;;;5068681;28;20051;-69
2022/08/29 11:34:42;;;;;;;11.05;2.85;;;;;;;;;;5057975;28;20064;-69
2022/08/29 11:37:27;;;;;;;18.35;2.83;;;;;;;;;;5063150;28;20057;-69
2022/08/29 11:39:58;;;;;;;13.02;2.72;;;;;;;;;;5056227;28;20044;-69
2022/08/29 11:42:29;;;;;;;9.18;2.70;;;;;;;;;;5047946;28;20063;-69
2022/08/29 11:44:57;;;;;;;14.48;3.10;;;;;;;;;;5060539;28;20110;-69
2022/08/29 11:47:37;;;;;;;10.13;2.58;;;;;;;;;;5069817;28;20067;-69
2022/08/29 11:50:08;;;;;;;13.13;2.65;;;;;;;;;;5064503;28;20559;-69
2022/08/29 11:52:35;;;;;;;15.27;3.25;;;;;;;;;;5071423;28;20048;-69
2022/08/29 11:55:22;;;;;;;11.13;3.17;;;;;;;;;;5047997;28;20055;-70
2022/08/29 11:57:53;;;;;;;14.27;3.38;;;;;;;;;;5048402;28;20080;-69
2022/08/29 12:00:25;;;;;;;14.13;3.55;;;;;;;;;;5062740;28;20051;-70
2022/08/29 12:02:52;;;;;;;12.98;3.38;;;;;;;;;;5062848;28;20060;-69
2022/08/29 12:05:34;;;;;;;16.63;3.38;;;;;;;;;;5071231;28;20044;-69
2022/08/29 12:08:02;;;;;;;13.60;3.63;;;;;;;;;;5064792;28;20044;-69
2022/08/29 12:10:31;;;;;;;12.98;3.45;;;;;;;;;;5071111;28;20059;-70
2022/08/29 12:13:00;;;;;;;14.05;3.72;;;;;;;;;;5047639;28;20439;-70
2022/08/29 12:15:45;;;;;;;12.95;3.72;;;;;;;;;;5067218;28;20052;-70
2022/08/29 12:18:35;;;;;;;12.23;3.25;;;;;;;;;;5071413;28;20494;-70
2022/08/29 12:21:22;;;;;;;21.55;3.28;;;;;;;;;;5052301;28;20692;-70
2022/08/29 12:23:49;;;;;;;12.43;3.20;;;;;;;;;;5045953;28;20064;-69
2022/08/29 12:26:31;;;;;;;11.40;2.80;;;;;;;;;;5035366;28;20092;-69
2022/08/29 12:29:00;;;;;;;15.73;3.55;;;;;;;;;;5056884;28;20078;-69
2022/08/29 12:31:33;;;;;;;11.15;3.15;;;;;;;;;;5065154;28;20104;-70
2022/08/29 12:34:05;;;;;;;14.07;3.23;;;;;;;;;;5061059;28;20057;-69
2022/08/29 12:36:36;;;;;;;15.98;3.95;;;;;;;;;;5062910;28;20075;-69
2022/08/29 12:39:15;;;;;;;15.98;3.40;;;;;;;;;;5065088;28;20094;-70
2022/08/29 12:41:49;;;;;;;12.00;3.28;;;;;;;;;;5050308;28;20442;-69
2022/08/29 12:44:20;;;;;;;17.92;3.42;;;;;;;;;;5066291;28;20051;-70
2022/08/29 12:46:51;;;;;;;12.40;2.95;;;;;;;;;;5067162;28;20052;-70
2022/08/29 12:49:20;;;;;;;12.43;3.25;;;;;;;;;;5064555;28;20048;-70
2022/08/29 12:51:50;;;;;;;13.68;2.88;;;;;;;;;;5043856;28;20098;-69
2022/08/29 12:54:29;;;;;;;12.38;2.83;;;;;;;;;;5071168;28;20057;-70
2022/08/29 12:56:56;;;;;;;8.63;2.70;;;;;;;;;;5046595;28;20105;-70
2022/08/29 12:59:25;;;;;;;10.48;2.70;;;;;;;;;;5060925;28;20052;-69
2022/08/29 13:01:53;;;;;;;14.93;3.40;;;;;;;;;;5043469;28;20099;-70
2022/08/29 13:04:21;;;;;;;11.82;3.17;;;;;;;;;;5042192;28;20045;-70
2022/08/29 13:06:52;;;;;;;10.63;2.85;;;;;;;;;;5057314;28;20107;-68
2022/08/29 13:09:24;;;;;;;12.40;3.00;;;;;;;;;;5047527;28;20488;-68
2022/08/29 13:12:06;;;;;;;11.73;2.67;;;;;;;;;;5055319;28;20356;-69
2022/08/29 13:14:46;;;;;;;10.63;2.83;;;;;;;;;;5062684;28;20045;-68
2022/08/29 13:17:14;;;;;;;11.32;2.63;;;;;;;;;;5061585;28;20852;-68
2022/08/29 13:19:41;;;;;;;15.07;3.60;;;;;;;;;;5065323;28;20106;-69
2022/08/29 13:22:12;;;;;;;14.75;2.88;;;;;;;;;;5062610;28;20057;-69
2022/08/29 13:24:39;;;;;;;11.30;3.10;;;;;;;;;;5067510;28;20101;-68
2022/08/29 13:27:09;;;;;;;13.55;3.28;;;;;;;;;;5054288;28;20056;-69
2022/08/29 13:29:38;;;;;;;18.48;4.70;;;;;;;;;;5063012;28;20497;-69
2022/08/29 13:32:09;;;;;;;15.05;2.70;;;;;;;;;;5059370;28;21377;-68
2022/08/29 13:34:36;;;;;;;14.82;3.35;;;;;;;;;;5063429;28;20047;-69
2022/08/29 13:37:07;;;;;;;10.93;2.97;;;;;;;;;;5063360;28;20074;-68
2022/08/29 13:39:43;;;;;;;15.98;3.00;;;;;;;;;;5047618;28;20047;-69
2022/08/29 13:42:21;;;;;;;12.60;2.90;;;;;;;;;;5054262;28;20056;-69
2022/08/29 13:45:06;;;;;;;13.90;3.35;;;;;;;;;;5069122;28;20063;-68
2022/08/29 13:47:39;;;;;;;12.15;2.70;;;;;;;;;;5037077;28;20507;-68
2022/08/29 13:50:08;;;;;;;10.75;2.95;;;;;;;;;;5059838;28;20120;-68
2022/08/29 13:52:35;;;;;;;11.73;2.95;;;;;;;;;;5064454;28;20056;-68
2022/08/29 13:55:03;;;;;;;13.25;2.65;;;;;;;;;;5057419;28;20071;-68
2022/08/29 13:57:30;;;;;;;15.70;3.10;;;;;;;;;;5053351;28;20055;-69
2022/08/29 13:59:58;;;;;;;10.35;2.45;;;;;;;;;;5048963;28;20557;-68
2022/08/29 14:02:25;;;;;;;12.73;2.92;;;;;;;;;;5066402;28;20114;-68
2022/08/29 14:04:54;;;;;;;10.57;2.65;;;;;;;;;;5064268;28;21727;-68
2022/08/29 14:07:23;;;;;;;10.35;2.78;;;;;;;;;;5045136;28;20068;-68
2022/08/29 14:09:50;;;;;;;12.68;2.70;;;;;;;;;;5059064;28;20147;-69
2022/08/29 14:12:18;;;;;;;11.68;2.30;;;;;;;;;;5043479;28;20054;-69
2022/08/29 14:14:45;;;;;;;12.07;2.75;;;;;;;;;;5068428;28;20509;-68
2022/08/29 14:17:13;;;;;;;13.98;2.78;;;;;;;;;;5064143;28;20185;-69
2022/08/29 14:19:41;;;;;;;9.30;2.88;;;;;;;;;;5060487;28;20488;-68
2022/08/29 14:22:09;;;;;;;12.05;3.45;;;;;;;;;;5063762;28;20049;-69
2022/08/29 14:24:38;;;;;;;11.23;2.50;;;;;;;;;;5063554;28;20106;-69
2022/08/29 14:27:05;;;;;;;14.43;3.35;;;;;;;;;;5056827;28;20055;-68
2022/08/29 14:29:33;;;;;;;13.23;2.75;;;;;;;;;;5066496;28;20051;-68
2022/08/29 14:32:01;;;;;;;15.52;3.13;;;;;;;;;;5066455;28;20083;-68
2022/08/29 14:34:28;;;;;;;10.73;2.80;;;;;;;;;;5061024;28;20128;-68
2022/08/29 14:36:55;;;;;;;13.73;2.92;;;;;;;;;;5061326;28;20446;-68
2022/08/29 14:39:24;;;;;;;9.68;2.42;;;;;;;;;;5066937;28;20055;-68
2022/08/29 14:41:51;;;;;;;9.90;2.53;;;;;;;;;;5068755;28;20064;-68
2022/08/29 14:44:19;;;;;;;11.45;2.58;;;;;;;;;;5067263;28;20052;-68
2022/08/29 14:46:47;;;;;;;10.30;2.40;;;;;;;;;;5059701;28;20075;-68
2022/08/29 14:49:14;;;;;;;13.63;2.45;;;;;;;;;;5067652;28;20052;-69
2022/08/29 14:51:43;;;;;;;11.57;2.30;;;;;;;;;;5063926;28;20052;-68
2022/08/29 14:54:10;;;;;;;7.90;2.28;;;;;;;;;;5061191;28;20048;-68
2022/08/29 14:56:39;;;;;;;8.38;2.50;;;;;;;;;;5044520;28;20094;-68
2022/08/29 14:59:06;;;;;;;8.00;2.05;;;;;;;;;;5041906;28;20044;-69
2022/08/29 15:01:33;;;;;;;7.78;2.10;;;;;;;;;;5064671;28;20048;-68
2022/08/29 15:04:01;;;;;;;9.23;2.50;;;;;;;;;;5064676;28;20193;-69
2022/08/29 15:06:28;;;;;;;11.07;2.33;;;;;;;;;;5065114;28;20549;-69
2022/08/29 15:08:56;;;;;;;9.10;2.22;;;;;;;;;;5062512;28;20052;-69
2022/08/29 15:11:23;;;;;;;10.50;2.05;;;;;;;;;;5061831;28;20083;-69